Time;durP1;ratioP1;P1;durP2;ratioP2;P2;SDS_P1;SDS_P2;PMS_P1;PMS_P2;Temp;Humidity;BMP_temperature;BMP_pressure;BME280_temperature;BME280_humidity;BME280_pressure;Samples;Min_cycle;Max_cycle;Signal;HPM_P1;HPM_P2
2023/06/20 00:00:17;;;;;;;8.95;8.05;;;;;;;20.46;92.54;100792.44;5075100;28;20059;-67
2023/06/20 00:02:43;;;;;;;13.35;7.55;;;;;;;20.41;91.91;100786.09;5063784;28;20032;-66
2023/06/20 00:05:09;;;;;;;7.75;7.05;;;;;;;20.33;91.75;100776.47;5072409;28;20029;-66
2023/06/20 00:07:35;;;;;;;10.02;7.60;;;;;;;20.25;91.25;100768.75;5072967;28;20040;-66
2023/06/20 00:10:02;;;;;;;10.80;7.15;;;;;;;20.24;91.09;100772.41;5069573;28;20056;-67
2023/06/20 00:12:27;;;;;;;12.82;8.40;;;;;;;20.27;90.50;100772.03;5073198;28;20036;-65
2023/06/20 00:14:53;;;;;;;10.52;8.20;;;;;;;20.30;90.06;100768.97;5069893;28;20039;-66
2023/06/20 00:17:18;;;;;;;9.57;8.57;;;;;;;20.33;90.62;100765.09;5074568;28;20044;-66
2023/06/20 00:19:44;;;;;;;10.13;8.05;;;;;;;20.32;91.74;100769.56;5068793;28;20466;-66
2023/06/20 00:22:11;;;;;;;10.45;9.45;;;;;;;20.34;93.16;100775.47;5065785;28;20037;-67
2023/06/20 00:24:37;;;;;;;14.70;9.15;;;;;;;20.34;94.45;100780.75;5065104;28;20132;-66
2023/06/20 00:27:04;;;;;;;10.60;9.65;;;;;;;20.25;96.11;100778.53;5072355;28;20032;-66
2023/06/20 00:29:30;;;;;;;10.18;9.15;;;;;;;20.15;97.26;100779.72;5072090;28;20036;-66
2023/06/20 00:31:57;;;;;;;10.45;9.45;;;;;;;20.20;98.33;100779.94;5072545;28;20389;-66
2023/06/20 00:34:23;;;;;;;10.85;9.82;;;;;;;20.22;97.97;100779.75;5067250;28;20060;-66
2023/06/20 00:36:49;;;;;;;11.15;9.70;;;;;;;20.15;98.40;100776.25;5072841;28;20078;-66
2023/06/20 00:39:14;;;;;;;9.88;8.90;;;;;;;20.09;98.17;100774.41;5070457;28;20115;-67
2023/06/20 00:41:40;;;;;;;10.70;9.55;;;;;;;20.13;98.42;100773.00;5067964;28;20067;-66
2023/06/20 00:44:06;;;;;;;11.10;10.10;;;;;;;20.20;98.56;100765.91;5070802;28;20507;-66
2023/06/20 00:46:36;;;;;;;12.75;9.27;;;;;;;20.16;98.03;100770.78;5075738;28;20028;-65
2023/06/20 00:49:05;;;;;;;12.50;8.98;;;;;;;20.08;98.27;100778.88;5067815;28;20064;-66
2023/06/20 00:51:31;;;;;;;10.90;9.32;;;;;;;20.09;98.02;100769.94;5074407;28;20078;-66
2023/06/20 00:53:57;;;;;;;10.38;9.38;;;;;;;20.04;97.74;100780.28;5065992;28;20032;-66
2023/06/20 00:56:25;;;;;;;9.45;8.63;;;;;;;20.07;97.31;100784.38;5077759;28;20031;-67
2023/06/20 00:58:50;;;;;;;8.00;7.30;;;;;;;20.14;95.02;100793.16;5069272;28;20579;-67
2023/06/20 01:01:21;;;;;;;8.45;6.55;;;;;;;20.16;93.59;100791.94;5080579;28;20090;-66
2023/06/20 01:03:48;;;;;;;8.68;7.43;;;;;;;20.14;92.89;100793.97;5062059;28;20081;-66
2023/06/20 01:06:42;;;;;;;8.90;8.00;;;;;;;20.11;92.32;100794.34;5068176;28;20154;-66
2023/06/20 01:09:19;;;;;;;11.27;8.30;;;;;;;20.05;92.51;100791.69;5073500;28;20134;-66
2023/06/20 01:12:08;;;;;;;10.48;8.75;;;;;;;20.08;92.85;100796.56;5061744;28;20345;-67
2023/06/20 01:14:46;;;;;;;11.27;8.20;;;;;;;20.08;92.77;100784.16;5062768;28;20052;-67
2023/06/20 01:17:27;;;;;;;8.73;7.88;;;;;;;20.05;92.88;100784.56;5063856;28;20322;-67
2023/06/20 01:19:53;;;;;;;8.52;7.63;;;;;;;20.09;93.00;100792.91;5069599;28;20487;-67
2023/06/20 01:22:41;;;;;;;10.57;8.32;;;;;;;20.10;93.23;100787.44;5061514;28;20048;-66
2023/06/20 01:25:13;;;;;;;9.80;8.88;;;;;;;20.12;93.50;100789.88;5060105;28;20035;-66
2023/06/20 01:28:04;;;;;;;10.43;9.07;;;;;;;20.13;93.42;100784.38;5066712;28;20528;-68
2023/06/20 01:30:41;;;;;;;12.60;9.00;;;;;;;20.18;93.77;100781.16;5072987;28;20032;-68
2023/06/20 01:33:08;;;;;;;9.40;8.35;;;;;;;20.17;93.57;100775.03;5069108;28;20448;-68
2023/06/20 01:35:36;;;;;;;11.88;8.13;;;;;;;20.15;93.57;100773.63;5075224;28;20119;-67
2023/06/20 01:38:07;;;;;;;9.32;8.40;;;;;;;20.17;93.72;100776.88;5073052;28;20028;-66
2023/06/20 01:40:37;;;;;;;13.02;7.88;;;;;;;20.23;93.34;100775.25;5061470;28;20051;-66
2023/06/20 01:43:05;;;;;;;9.13;8.32;;;;;;;20.27;93.18;100768.56;5064887;28;20134;-67
2023/06/20 01:45:35;;;;;;;9.23;7.75;;;;;;;20.26;93.22;100780.16;5070489;28;20070;-67
2023/06/20 01:48:03;;;;;;;9.07;7.82;;;;;;;20.26;94.13;100774.88;5070402;28;20029;-66
2023/06/20 01:50:31;;;;;;;9.27;8.38;;;;;;;20.18;95.50;100784.63;5069720;28;20033;-66
2023/06/20 01:52:59;;;;;;;9.65;8.75;;;;;;;20.14;96.46;100778.09;5075053;28;20043;-66
2023/06/20 01:55:26;;;;;;;9.27;8.35;;;;;;;20.04;97.12;100782.13;5066606;28;20122;-66
2023/06/20 01:57:54;;;;;;;10.80;8.18;;;;;;;19.99;97.84;100768.66;5067231;28;20102;-67
2023/06/20 02:00:23;;;;;;;9.88;8.98;;;;;;;19.92;98.42;100773.13;5069560;28;20412;-66
2023/06/20 02:02:50;;;;;;;10.50;8.82;;;;;;;19.87;98.40;100776.34;5072511;28;20034;-67
2023/06/20 02:05:19;;;;;;;10.00;8.57;;;;;;;19.89;98.34;100779.63;5062201;28;20036;-66
2023/06/20 02:07:46;;;;;;;9.98;9.00;;;;;;;19.87;98.65;100771.06;5065839;28;20063;-66
2023/06/20 02:10:13;;;;;;;11.23;9.10;;;;;;;19.84;97.93;100764.38;5066828;28;20959;-67
2023/06/20 02:12:41;;;;;;;9.25;8.30;;;;;;;19.87;96.54;100765.78;5069384;28;20036;-67
2023/06/20 02:15:08;;;;;;;9.13;8.18;;;;;;;19.86;96.15;100764.16;5076906;28;20114;-66
2023/06/20 02:17:35;;;;;;;9.85;8.48;;;;;;;19.82;95.77;100766.41;5060197;28;20043;-66
2023/06/20 02:20:04;;;;;;;9.82;7.55;;;;;;;19.82;95.37;100763.75;5062400;28;20076;-67
2023/06/20 02:22:30;;;;;;;8.48;7.68;;;;;;;19.84;95.18;100760.91;5062069;28;20029;-67
2023/06/20 02:25:04;;;;;;;8.65;7.53;;;;;;;19.83;95.05;100761.94;5060949;28;20044;-68
2023/06/20 02:27:31;;;;;;;8.40;7.50;;;;;;;19.86;94.28;100756.22;5062563;28;20036;-66
2023/06/20 02:29:59;;;;;;;13.00;7.82;;;;;;;19.85;94.37;100767.81;5069359;28;20120;-66
2023/06/20 02:32:26;;;;;;;8.32;7.32;;;;;;;19.85;94.28;100762.50;5071609;28;20036;-66
2023/06/20 02:34:55;;;;;;;9.02;8.13;;;;;;;19.87;95.29;100761.31;5065054;28;20068;-66
2023/06/20 02:37:22;;;;;;;12.35;8.05;;;;;;;19.81;96.56;100763.94;5068246;28;20496;-68
2023/06/20 02:39:48;;;;;;;10.02;8.27;;;;;;;19.69;96.88;100760.22;5062586;28;20412;-66
2023/06/20 02:42:14;;;;;;;8.38;7.55;;;;;;;19.65;97.31;100761.63;5065571;28;20039;-66
2023/06/20 02:44:40;;;;;;;8.73;7.93;;;;;;;19.65;98.26;100759.00;5075445;28;20055;-66
2023/06/20 02:47:55;;;;;;;9.90;8.77;;;;;;;19.53;98.55;100756.91;5075696;28;20036;-66
2023/06/20 02:50:34;;;;;;;9.00;8.10;;;;;;;19.51;99.08;100756.28;5052016;28;20044;-67
2023/06/20 02:53:24;;;;;;;12.88;8.45;;;;;;;19.47;99.01;100749.72;5073165;28;20029;-66
2023/06/20 02:56:01;;;;;;;8.85;7.90;;;;;;;19.43;98.72;100743.19;5050212;28;20028;-66
2023/06/20 02:58:29;;;;;;;11.50;8.80;;;;;;;19.47;98.45;100749.72;5074315;28;20369;-66
2023/06/20 03:01:00;;;;;;;9.27;8.23;;;;;;;19.47;98.29;100754.19;5073668;28;20077;-66
2023/06/20 03:03:45;;;;;;;9.55;8.50;;;;;;;19.37;96.63;100754.56;5064232;28;20048;-66
2023/06/20 03:06:17;;;;;;;10.80;9.30;;;;;;;19.36;96.75;100750.28;5056987;28;20391;-65
2023/06/20 03:08:49;;;;;;;12.25;9.18;;;;;;;19.37;96.18;100749.28;5068492;28;20033;-72
2023/06/20 03:11:15;;;;;;;10.90;9.70;;;;;;;19.35;96.15;100756.59;5064644;28;20020;-72
2023/06/20 03:13:41;;;;;;;9.75;8.85;;;;;;;19.33;96.13;100755.16;5076299;28;20037;-72
2023/06/20 03:16:09;;;;;;;10.20;9.13;;;;;;;19.29;95.84;100751.25;5077535;28;20048;-72
2023/06/20 03:18:39;;;;;;;9.90;9.00;;;;;;;19.27;96.14;100762.03;5072912;28;20029;-72
2023/06/20 03:21:05;;;;;;;12.13;10.05;;;;;;;19.28;96.39;100750.44;5071112;28;20040;-71
2023/06/20 03:23:32;;;;;;;10.07;9.10;;;;;;;19.28;96.41;100750.44;5070626;28;20044;-72
2023/06/20 03:25:58;;;;;;;15.32;9.02;;;;;;;19.33;96.75;100745.41;5072515;28;20036;-72
2023/06/20 03:28:24;;;;;;;9.73;8.82;;;;;;;19.31;96.99;100738.69;5078855;28;20036;-72
2023/06/20 03:30:51;;;;;;;9.82;8.88;;;;;;;19.30;97.76;100743.16;5074267;28;20086;-72
2023/06/20 03:33:17;;;;;;;10.95;9.85;;;;;;;19.27;97.50;100743.53;5073822;28;20029;-72
2023/06/20 03:35:43;;;;;;;12.45;9.27;;;;;;;19.26;97.40;100747.19;5069271;28;20028;-72
2023/06/20 03:38:10;;;;;;;10.45;9.38;;;;;;;19.32;96.90;100751.69;5079822;28;20043;-72
2023/06/20 03:40:38;;;;;;;10.38;8.93;;;;;;;19.41;97.07;100763.72;5062733;28;20387;-72
2023/06/20 03:43:03;;;;;;;10.65;9.32;;;;;;;19.51;97.75;100766.84;5063444;28;20040;-71
2023/06/20 03:45:29;;;;;;;10.18;8.98;;;;;;;19.53;98.24;100764.84;5069422;28;20101;-71
2023/06/20 03:47:54;;;;;;;10.45;9.38;;;;;;;19.48;98.72;100772.50;5073247;28;20024;-72
2023/06/20 03:50:20;;;;;;;13.18;9.45;;;;;;;19.39;98.78;100771.00;5070538;28;20083;-72
2023/06/20 03:52:46;;;;;;;10.90;9.82;;;;;;;19.38;99.47;100766.75;5060105;28;20040;-72
2023/06/20 03:55:12;;;;;;;12.52;10.07;;;;;;;19.36;100.00;100767.97;5071250;28;20051;-72
2023/06/20 03:57:38;;;;;;;13.00;10.18;;;;;;;19.34;100.00;100770.81;5066539;28;20790;-72
2023/06/20 04:00:12;;;;;;;11.63;10.32;;;;;;;19.31;100.00;100759.81;5071099;28;20035;-72
2023/06/20 04:02:45;;;;;;;14.05;10.50;;;;;;;19.31;100.00;100763.28;5063460;28;20530;-71
2023/06/20 04:05:11;;;;;;;11.73;10.45;;;;;;;19.33;100.00;100763.06;5059217;28;20090;-72
2023/06/20 04:07:41;;;;;;;10.48;9.48;;;;;;;19.35;100.00;100759.22;5074838;28;20040;-71
2023/06/20 04:10:08;;;;;;;16.20;10.18;;;;;;;19.37;100.00;100762.50;5070370;28;20483;-72
2023/06/20 04:12:34;;;;;;;10.43;9.43;;;;;;;19.41;100.00;100750.50;5070007;28;20043;-72
2023/06/20 04:14:59;;;;;;;11.30;10.20;;;;;;;19.46;100.00;100752.56;5072858;28;20390;-72
2023/06/20 04:17:25;;;;;;;11.10;9.98;;;;;;;19.48;100.00;100750.53;5074250;28;20032;-74
2023/06/20 04:19:50;;;;;;;10.32;9.25;;;;;;;19.53;100.00;100756.09;5083431;28;20036;-74
2023/06/20 04:22:16;;;;;;;9.27;8.43;;;;;;;19.63;100.00;100753.91;5076591;28;20047;-74
2023/06/20 04:24:41;;;;;;;13.30;9.73;;;;;;;19.64;99.75;100749.44;5070984;28;20113;-74
2023/06/20 04:27:06;;;;;;;11.50;10.02;;;;;;;19.65;99.41;100751.06;5079321;28;20495;-73
2023/06/20 04:29:32;;;;;;;11.88;9.80;;;;;;;19.68;99.93;100748.03;5070385;28;20024;-68
2023/06/20 04:31:57;;;;;;;10.45;9.38;;;;;;;19.73;99.24;100754.34;5076186;28;20027;-68
2023/06/20 04:34:24;;;;;;;10.60;9.60;;;;;;;19.78;99.28;100753.78;5072853;28;20553;-69
2023/06/20 04:36:51;;;;;;;11.05;9.95;;;;;;;19.82;99.25;100752.38;5070163;28;20036;-68
2023/06/20 04:39:16;;;;;;;10.90;9.90;;;;;;;19.79;99.20;100750.13;5078879;28;20027;-68
2023/06/20 04:41:42;;;;;;;11.73;10.32;;;;;;;19.75;100.00;100754.16;5054288;28;20443;-68
2023/06/20 04:44:08;;;;;;;11.93;10.55;;;;;;;19.77;100.00;100745.03;5067173;28;20032;-68
2023/06/20 04:46:33;;;;;;;14.77;10.65;;;;;;;19.78;100.00;100751.13;5062144;28;20112;-68
2023/06/20 04:49:00;;;;;;;11.82;10.52;;;;;;;19.78;100.00;100751.94;5071257;28;20054;-68
2023/06/20 04:51:26;;;;;;;12.93;10.65;;;;;;;19.86;100.00;100750.94;5067717;28;20384;-68
2023/06/20 04:53:52;;;;;;;16.27;11.18;;;;;;;19.93;100.00;100743.03;5063294;28;20037;-69
2023/06/20 04:56:19;;;;;;;11.93;10.45;;;;;;;19.96;100.00;100748.72;5070723;28;20028;-69
2023/06/20 04:58:45;;;;;;;11.93;10.77;;;;;;;19.99;100.00;100748.34;5071373;28;20038;-69
2023/06/20 05:01:14;;;;;;;13.90;11.02;;;;;;;20.05;100.00;100757.31;5064862;28;20115;-68
2023/06/20 05:03:43;;;;;;;12.13;10.88;;;;;;;20.16;99.99;100752.25;5064928;28;20032;-69
2023/06/20 05:06:08;;;;;;;10.85;9.70;;;;;;;20.21;100.00;100746.38;5067961;28;20024;-68
2023/06/20 05:08:34;;;;;;;15.23;10.73;;;;;;;20.24;99.84;100751.25;5069123;28;20045;-71
2023/06/20 05:10:59;;;;;;;15.10;10.80;;;;;;;20.27;99.18;100744.75;5061327;28;20094;-71
2023/06/20 05:13:25;;;;;;;14.73;10.60;;;;;;;20.32;99.03;100752.91;5064380;28;20036;-68
2023/06/20 05:15:50;;;;;;;12.18;10.57;;;;;;;20.39;98.90;100748.44;5069100;28;20115;-72
2023/06/20 05:18:16;;;;;;;10.32;9.38;;;;;;;20.46;98.29;100743.97;5073905;28;20119;-72
2023/06/20 05:20:41;;;;;;;11.27;10.15;;;;;;;20.53;98.04;100742.97;5076951;28;20084;-71
2023/06/20 05:23:06;;;;;;;10.32;9.18;;;;;;;20.62;97.94;100738.28;5071637;28;20032;-71
2023/06/20 05:25:32;;;;;;;13.82;10.82;;;;;;;20.69;97.38;100748.88;5070868;28;20075;-71
2023/06/20 05:27:57;;;;;;;13.05;10.73;;;;;;;20.70;97.70;100746.03;5079248;28;20027;-71
2023/06/20 05:30:23;;;;;;;11.35;9.85;;;;;;;20.78;97.39;100743.19;5086170;28;20356;-71
2023/06/20 05:32:48;;;;;;;11.85;10.75;;;;;;;20.88;97.43;100732.97;5081506;28;20468;-70
2023/06/20 05:35:14;;;;;;;12.38;10.02;;;;;;;21.02;97.33;100754.16;5085626;28;20028;-70
2023/06/20 05:37:39;;;;;;;11.13;10.02;;;;;;;21.11;96.86;100755.56;5083306;28;20035;-70
2023/06/20 05:40:06;;;;;;;13.05;9.93;;;;;;;21.17;96.59;100752.09;5082417;28;20051;-70
2023/06/20 05:42:32;;;;;;;12.57;10.20;;;;;;;21.24;96.49;100760.88;5075545;28;20459;-71
2023/06/20 05:44:57;;;;;;;11.63;9.80;;;;;;;21.30;96.05;100760.03;5073278;28;20352;-72
2023/06/20 05:47:23;;;;;;;14.75;10.23;;;;;;;21.37;95.48;100763.47;5087181;28;20134;-71
2023/06/20 05:49:48;;;;;;;11.82;9.45;;;;;;;21.44;95.13;100766.94;5085341;28;20108;-72
2023/06/20 05:52:14;;;;;;;10.57;8.80;;;;;;;21.53;94.83;100773.63;5083124;28;20032;-72
2023/06/20 05:54:43;;;;;;;13.52;9.80;;;;;;;21.62;94.16;100782.19;5073322;28;20029;-72
2023/06/20 05:57:08;;;;;;;14.98;8.98;;;;;;;21.61;94.34;100783.19;5073627;28;20119;-72
2023/06/20 05:59:34;;;;;;;9.38;8.57;;;;;;;21.68;94.14;100788.47;5075516;28;20167;-72
2023/06/20 06:02:00;;;;;;;21.88;10.10;;;;;;;21.75;93.28;100798.03;5062499;28;20024;-72
2023/06/20 06:04:25;;;;;;;11.18;10.07;;;;;;;21.85;93.03;100789.63;5072577;28;20040;-71
2023/06/20 06:06:51;;;;;;;13.30;10.13;;;;;;;21.94;92.73;100798.97;5073933;28;20118;-72
2023/06/20 06:09:17;;;;;;;12.18;8.70;;;;;;;21.99;92.80;100793.03;5072890;28;20119;-72
2023/06/20 06:11:42;;;;;;;9.65;8.73;;;;;;;22.12;92.66;100799.13;5071683;28;20020;-72
2023/06/20 06:14:08;;;;;;;9.25;8.45;;;;;;;22.30;91.85;100793.09;5077067;28;20033;-72
2023/06/20 06:16:33;;;;;;;11.50;8.45;;;;;;;22.32;90.94;100800.84;5073894;28;20028;-72
2023/06/20 06:19:00;;;;;;;10.88;8.45;;;;;;;22.30;90.86;100798.41;5072824;28;20043;-72
2023/06/20 06:21:26;;;;;;;9.43;8.18;;;;;;;22.39;91.14;100793.66;5068217;28;20047;-72
2023/06/20 06:23:52;;;;;;;9.32;8.10;;;;;;;22.54;90.56;100796.84;5074528;28;20047;-72
2023/06/20 06:26:17;;;;;;;10.70;8.80;;;;;;;22.64;89.98;100783.91;5071101;28;20033;-72
2023/06/20 06:28:43;;;;;;;11.45;8.48;;;;;;;22.71;90.45;100781.97;5079622;28;20048;-72
2023/06/20 06:31:11;;;;;;;8.98;7.57;;;;;;;22.79;90.32;100780.94;5074284;28;20024;-72
2023/06/20 06:33:37;;;;;;;10.40;9.13;;;;;;;22.82;89.61;100781.31;5073404;28;20046;-72
2023/06/20 06:36:04;;;;;;;9.15;8.25;;;;;;;22.98;88.99;100779.97;5075465;28;20035;-72
2023/06/20 06:38:29;;;;;;;8.40;7.60;;;;;;;23.16;88.31;100773.84;5077064;28;20024;-72
2023/06/20 06:40:56;;;;;;;11.85;8.68;;;;;;;23.26;88.13;100768.03;5077347;28;20024;-72
2023/06/20 06:43:22;;;;;;;9.93;8.15;;;;;;;23.35;88.03;100778.16;5073123;28;20503;-72
2023/06/20 06:45:47;;;;;;;8.95;7.72;;;;;;;23.43;87.97;100775.22;5080110;28;20039;-72
2023/06/20 06:48:13;;;;;;;8.73;7.82;;;;;;;23.46;86.97;100776.63;5071576;28;20025;-72
2023/06/20 06:50:38;;;;;;;9.80;8.27;;;;;;;23.45;87.02;100781.13;5082478;28;20032;-71
2023/06/20 06:53:04;;;;;;;8.43;7.53;;;;;;;23.52;87.08;100782.91;5076790;28;20453;-72
2023/06/20 06:55:30;;;;;;;11.43;6.82;;;;;;;23.65;87.29;100772.94;5076710;28;20044;-72
2023/06/20 06:57:55;;;;;;;8.63;7.20;;;;;;;23.79;86.64;100770.91;5081043;28;20035;-72
2023/06/20 07:00:21;;;;;;;9.23;7.78;;;;;;;23.92;86.21;100767.28;5075873;28;20048;-72
2023/06/20 07:02:46;;;;;;;9.88;8.13;;;;;;;24.06;85.27;100769.56;5077901;28;20059;-72
2023/06/20 07:05:12;;;;;;;8.73;7.75;;;;;;;24.18;84.93;100769.56;5079036;28;20119;-72
2023/06/20 07:07:38;;;;;;;10.30;8.00;;;;;;;24.19;85.17;100762.41;5077880;28;21148;-72
2023/06/20 07:10:04;;;;;;;9.23;7.30;;;;;;;24.31;83.45;100760.63;5077150;28;20086;-72
2023/06/20 07:12:30;;;;;;;7.88;7.10;;;;;;;24.43;83.25;100761.47;5077386;28;20032;-72
2023/06/20 07:14:56;;;;;;;8.73;7.03;;;;;;;24.53;82.93;100768.91;5079725;28;20048;-72
2023/06/20 07:17:25;;;;;;;10.20;6.88;;;;;;;24.63;81.19;100769.94;5087620;28;20525;-72
2023/06/20 07:19:51;;;;;;;9.70;7.35;;;;;;;24.67;78.80;100762.31;5084080;28;20053;-72
2023/06/20 07:22:16;;;;;;;6.90;5.90;;;;;;;24.76;78.96;100759.06;5078547;28;20412;-72
2023/06/20 07:24:42;;;;;;;7.32;6.63;;;;;;;25.02;78.25;100762.38;5079313;28;20118;-72
2023/06/20 07:27:07;;;;;;;7.50;6.47;;;;;;;25.14;77.36;100757.81;5079375;28;20089;-72
2023/06/20 07:29:33;;;;;;;7.18;6.47;;;;;;;25.26;76.98;100758.63;5086785;28;20031;-72
2023/06/20 07:31:58;;;;;;;9.82;6.05;;;;;;;25.36;76.71;100760.69;5086360;28;20107;-71
2023/06/20 07:34:24;;;;;;;11.40;6.82;;;;;;;25.45;76.73;100769.97;5088320;28;20149;-71
2023/06/20 07:36:49;;;;;;;8.18;6.43;;;;;;;25.63;75.47;100764.44;5085998;28;20107;-71
2023/06/20 07:39:14;;;;;;;7.47;6.43;;;;;;;25.79;75.20;100758.41;5082918;28;20040;-70
2023/06/20 07:41:40;;;;;;;5.90;5.07;;;;;;;25.95;74.51;100756.03;5077853;28;20028;-71
2023/06/20 07:44:07;;;;;;;6.30;5.30;;;;;;;26.04;73.32;100750.03;5076312;28;20105;-70
2023/06/20 07:46:32;;;;;;;5.72;5.00;;;;;;;26.27;70.44;100754.47;5084340;28;20509;-71
2023/06/20 07:48:58;;;;;;;6.03;4.90;;;;;;;26.43;69.82;100752.91;5076926;28;20040;-71
2023/06/20 07:51:23;;;;;;;6.45;4.32;;;;;;;26.44;69.80;100752.66;5077427;28;20024;-71
2023/06/20 07:53:49;;;;;;;4.70;3.63;;;;;;;26.56;68.29;100749.91;5069619;28;20081;-71
2023/06/20 07:56:14;;;;;;;4.97;3.78;;;;;;;26.66;67.86;100749.25;5065999;28;20024;-71
2023/06/20 07:58:41;;;;;;;4.78;3.85;;;;;;;26.69;66.79;100749.56;5075308;28;20028;-72
2023/06/20 08:01:07;;;;;;;4.70;4.20;;;;;;;26.76;66.60;100750.22;5074635;28;20036;-71
2023/06/20 08:03:33;;;;;;;4.78;4.38;;;;;;;26.79;67.04;100740.91;5072313;28;20653;-70
2023/06/20 08:05:58;;;;;;;5.22;4.72;;;;;;;26.82;67.12;100739.59;5064537;28;20040;-71
2023/06/20 08:08:24;;;;;;;5.28;4.03;;;;;;;26.73;66.11;100748.03;5075777;28;20074;-70
2023/06/20 08:10:49;;;;;;;5.50;4.63;;;;;;;26.90;66.96;100742.69;5071911;28;20031;-71
2023/06/20 08:13:15;;;;;;;4.68;4.28;;;;;;;26.89;66.27;100741.06;5075782;28;20130;-71
2023/06/20 08:15:40;;;;;;;7.00;4.90;;;;;;;26.95;65.87;100745.41;5078093;28;20037;-70
2023/06/20 08:18:05;;;;;;;5.82;4.53;;;;;;;27.12;65.58;100750.75;5072817;28;20076;-71
2023/06/20 08:20:31;;;;;;;4.22;3.83;;;;;;;27.25;65.64;100750.41;5066959;28;20040;-71
2023/06/20 08:22:56;;;;;;;5.20;3.25;;;;;;;27.40;65.26;100747.94;5078420;28;20032;-72
2023/06/20 08:25:22;;;;;;;4.57;4.05;;;;;;;27.61;63.27;100753.53;5074265;28;20052;-72
2023/06/20 08:27:47;;;;;;;5.95;3.17;;;;;;;27.79;62.37;100755.09;5078436;28;20028;-71
2023/06/20 08:30:13;;;;;;;3.92;3.60;;;;;;;27.75;62.18;100752.91;5075527;28;20123;-71
2023/06/20 08:32:41;;;;;;;5.85;3.97;;;;;;;27.77;61.59;100752.66;5077765;28;20055;-71
2023/06/20 08:35:09;;;;;;;7.22;3.65;;;;;;;27.71;61.48;100748.31;5075634;28;20032;-71
2023/06/20 08:37:35;;;;;;;7.20;2.92;;;;;;;27.70;59.02;100750.16;5077289;28;20033;-71
2023/06/20 08:40:01;;;;;;;4.00;3.50;;;;;;;27.78;58.10;100759.63;5074737;28;20432;-71
2023/06/20 08:42:30;;;;;;;5.85;3.38;;;;;;;27.75;57.53;100749.41;5072587;28;20093;-71
2023/06/20 08:44:56;;;;;;;7.20;3.20;;;;;;;28.03;56.05;100754.53;5077718;28;20032;-70
2023/06/20 08:47:22;;;;;;;3.15;2.95;;;;;;;28.35;55.61;100751.91;5075044;28;20103;-71
2023/06/20 08:49:48;;;;;;;3.08;2.80;;;;;;;28.32;55.31;100754.31;5077847;28;20161;-71
2023/06/20 08:52:18;;;;;;;3.63;2.92;;;;;;;28.42;56.29;100755.16;5075633;28;20052;-70
2023/06/20 08:54:44;;;;;;;4.22;3.45;;;;;;;28.33;56.00;100750.56;5075629;28;20035;-70
2023/06/20 08:57:11;;;;;;;3.58;3.17;;;;;;;28.17;53.54;100757.59;5072085;28;20462;-70
2023/06/20 08:59:36;;;;;;;5.53;3.58;;;;;;;28.16;54.92;100752.50;5076545;28;20040;-70
2023/06/20 09:02:03;;;;;;;4.50;3.63;;;;;;;28.03;54.77;100757.19;5076803;28;20032;-70
2023/06/20 09:04:29;;;;;;;4.57;3.38;;;;;;;27.92;54.70;100760.03;5075192;28;20070;-70
2023/06/20 09:06:55;;;;;;;4.47;3.38;;;;;;;27.96;55.70;100766.50;5077902;28;20032;-71
2023/06/20 09:09:21;;;;;;;4.03;3.55;;;;;;;27.86;55.51;100758.38;5077029;28;20503;-70
2023/06/20 09:11:56;;;;;;;4.90;3.97;;;;;;;27.82;56.69;100760.75;5071921;28;20046;-70
2023/06/20 09:14:27;;;;;;;6.13;4.57;;;;;;;27.97;56.34;100750.19;5083411;28;20059;-70
2023/06/20 09:16:53;;;;;;;5.28;3.53;;;;;;;27.98;55.49;100751.78;5069826;28;20021;-70
2023/06/20 09:19:18;;;;;;;6.15;3.95;;;;;;;27.70;55.18;100752.03;5078185;28;20403;-70
2023/06/20 09:21:44;;;;;;;4.18;3.78;;;;;;;27.70;54.78;100760.06;5072178;28;20044;-70
2023/06/20 09:24:09;;;;;;;4.45;3.20;;;;;;;28.02;55.43;100762.81;5083178;28;20130;-70
2023/06/20 09:26:35;;;;;;;4.20;3.05;;;;;;;28.07;55.26;100762.88;5078500;28;20426;-70
2023/06/20 09:29:10;;;;;;;4.07;3.42;;;;;;;28.19;53.21;100765.41;5081394;28;20476;-70
2023/06/20 09:31:49;;;;;;;8.07;3.45;;;;;;;27.84;52.99;100758.63;5083301;28;20044;-71
2023/06/20 09:34:18;;;;;;;5.90;3.47;;;;;;;27.79;53.28;100763.94;5076082;28;20369;-71
2023/06/20 09:36:46;;;;;;;6.10;3.60;;;;;;;27.94;53.95;100769.41;5082830;28;20077;-71
2023/06/20 09:39:20;;;;;;;4.00;3.15;;;;;;;28.10;54.75;100759.69;5071632;28;20694;-71
2023/06/20 09:41:46;;;;;;;5.78;3.53;;;;;;;28.13;53.95;100761.84;5077688;28;20036;-70
2023/06/20 09:44:13;;;;;;;5.43;3.30;;;;;;;28.01;55.15;100769.22;5075884;28;20395;-71
2023/06/20 09:46:39;;;;;;;5.30;3.80;;;;;;;27.90;55.63;100773.66;5082971;28;20058;-70
2023/06/20 09:49:05;;;;;;;4.15;3.75;;;;;;;28.07;56.36;100769.03;5085574;28;20117;-71
2023/06/20 09:51:41;;;;;;;4.32;3.70;;;;;;;28.45;55.00;100764.56;5086705;28;20031;-71
2023/06/20 09:54:12;;;;;;;7.70;4.15;;;;;;;28.37;55.89;100765.84;5082774;28;20071;-70
2023/06/20 09:57:03;;;;;;;4.57;4.18;;;;;;;28.30;57.41;100772.50;5084792;28;20024;-71
2023/06/20 09:59:31;;;;;;;5.03;4.22;;;;;;;28.26;57.93;100768.72;5087122;28;20024;-70
2023/06/20 10:01:59;;;;;;;5.43;4.85;;;;;;;28.02;59.69;100762.81;5082788;28;20040;-72
2023/06/20 10:04:26;;;;;;;7.30;5.75;;;;;;;28.23;60.17;100771.91;5074806;28;20060;-71
2023/06/20 10:06:55;;;;;;;5.68;4.90;;;;;;;28.43;59.07;100772.06;5065989;28;20088;-70
2023/06/20 10:09:20;;;;;;;6.28;5.53;;;;;;;28.72;58.92;100773.38;5074343;28;20464;-72
2023/06/20 10:11:46;;;;;;;6.13;5.63;;;;;;;28.87;59.97;100777.25;5074948;28;20024;-71
2023/06/20 10:14:13;;;;;;;5.88;5.40;;;;;;;28.89;59.41;100780.47;5068278;28;20119;-71
2023/06/20 10:16:39;;;;;;;7.00;6.38;;;;;;;28.68;59.37;100771.47;5074699;28;20129;-71
2023/06/20 10:19:16;;;;;;;7.93;4.82;;;;;;;28.68;58.55;100772.28;5075705;28;20085;-72
2023/06/20 10:21:58;;;;;;;6.72;5.30;;;;;;;28.80;58.22;100772.09;5066773;28;20041;-71
2023/06/20 10:24:27;;;;;;;5.30;4.82;;;;;;;28.88;58.85;100776.97;5074024;28;20527;-71
2023/06/20 10:26:54;;;;;;;7.07;5.18;;;;;;;29.05;59.12;100776.81;5075361;28;20041;-70
2023/06/20 10:29:21;;;;;;;5.20;4.63;;;;;;;29.11;57.71;100778.47;5062661;28;20032;-71
2023/06/20 10:32:16;;;;;;;6.22;5.22;;;;;;;29.15;55.85;100784.94;5078055;28;20028;-71
2023/06/20 10:34:41;;;;;;;5.18;4.68;;;;;;;29.10;56.83;100779.53;5062333;28;20055;-71
2023/06/20 10:37:16;;;;;;;5.22;4.72;;;;;;;29.04;56.66;100783.25;5083264;28;20043;-71
2023/06/20 10:39:57;;;;;;;;;;;;;;;28.96;55.80;100781.06;5081876;28;20537;-71
2023/06/20 10:42:37;;;;;;;5.32;4.82;;;;;;;28.61;58.42;100790.44;5076997;28;20383;-70
2023/06/20 10:45:23;;;;;;;4.88;4.20;;;;;;;28.86;57.73;100784.47;5082266;28;20035;-72
2023/06/20 10:47:50;;;;;;;5.00;4.20;;;;;;;28.92;57.16;100785.31;5081656;28;20035;-70
2023/06/20 10:50:16;;;;;;;5.35;4.60;;;;;;;28.68;56.80;100785.69;5070165;28;20165;-71
2023/06/20 10:52:41;;;;;;;5.85;4.10;;;;;;;28.62;58.41;100792.06;5077075;28;20123;-70
2023/06/20 10:55:14;;;;;;;5.43;4.10;;;;;;;28.84;57.54;100791.97;5073243;28;20560;-70
2023/06/20 10:57:47;;;;;;;5.18;3.88;;;;;;;28.93;58.05;100797.66;5078933;28;20028;-70
2023/06/20 11:00:17;;;;;;;5.03;3.45;;;;;;;28.96;57.41;100786.44;5074594;28;20033;-70
2023/06/20 11:02:47;;;;;;;3.97;3.67;;;;;;;29.01;56.21;100783.78;5073835;28;20503;-70
2023/06/20 11:05:13;;;;;;;3.85;3.47;;;;;;;28.80;56.56;100785.50;5073603;28;20115;-71
2023/06/20 11:07:59;;;;;;;3.55;3.25;;;;;;;28.82;55.84;100779.91;5077202;28;20147;-70
2023/06/20 11:10:36;;;;;;;6.00;3.45;;;;;;;28.84;56.01;100788.47;5065742;28;20032;-70
2023/06/20 11:13:03;;;;;;;4.50;3.22;;;;;;;28.82;55.16;100787.97;5071816;28;20020;-71
2023/06/20 11:15:34;;;;;;;3.85;3.28;;;;;;;28.75;56.11;100798.88;5082455;28;20032;-71
2023/06/20 11:18:02;;;;;;;4.07;3.28;;;;;;;28.77;56.21;100793.25;5077441;28;20031;-71
2023/06/20 11:20:27;;;;;;;7.97;3.40;;;;;;;28.84;55.29;100794.66;5076335;28;20106;-71
2023/06/20 11:22:57;;;;;;;4.90;3.47;;;;;;;28.85;54.54;100793.59;5081940;28;20031;-71